Langley Green, United Kingdom
Current Conditions -  °F | °C
As of 5:50 PM on Tuesday 21 Oct 2014 (Local Time) from EGKK Reporting Station
Few Clouds Few Clouds  
Wind Chill: 54°   Ceiling: Unl
Heat Index: 54°   Visibility: 6mi
Dew Point: 37°   Wind: 21mph
Humidity: 54%   Direction: 280°W
Pressure: 29.91"   Gusts: NA
Location:  51.13°N, 0.2°W
Report Text: EGKK 211650Z 28018KT 9999 FEW048CB 12/03 Q1013
Loading
Personal Weather Stations






























Interactive Weather Map
Tropical Storm Tracking
New forecast layout! Learn more

10-Day Weather Forecast

Advertisements
Track Severe Weather on mobile